createdAt,value
2018-07-24T00:00:02.465Z,0.00
2018-07-24T00:01:02.466Z,0.00
2018-07-24T00:02:02.465Z,0.00
2018-07-24T00:03:02.474Z,0.00
2018-07-24T00:04:02.473Z,0.00
2018-07-24T00:05:02.470Z,0.00
2018-07-24T00:06:02.470Z,0.00
2018-07-24T00:07:02.475Z,0.00
2018-07-24T00:08:02.476Z,0.00
2018-07-24T00:09:02.478Z,0.00
2018-07-24T00:10:02.479Z,0.00
2018-07-24T00:11:02.572Z,0.00
2018-07-24T00:12:02.481Z,0.00
2018-07-24T00:13:02.478Z,0.00
2018-07-24T00:14:02.476Z,0.00
2018-07-24T00:15:02.485Z,0.00
2018-07-24T00:16:02.482Z,0.00
2018-07-24T00:17:02.483Z,0.00
2018-07-24T00:18:02.482Z,0.00
2018-07-24T00:19:02.483Z,0.00
2018-07-24T00:20:02.479Z,0.00
2018-07-24T00:21:02.486Z,0.00
2018-07-24T00:22:02.484Z,0.00
2018-07-24T00:23:02.481Z,0.00
2018-07-24T00:24:02.482Z,0.00
2018-07-24T00:25:02.484Z,0.00
2018-07-24T00:26:02.491Z,0.00
2018-07-24T00:27:02.488Z,0.00
2018-07-24T00:28:02.491Z,0.00
2018-07-24T00:29:02.491Z,0.00
2018-07-24T00:30:02.489Z,0.00
2018-07-24T00:31:02.487Z,0.00
2018-07-24T00:32:02.489Z,0.00
2018-07-24T00:33:02.486Z,0.00
2018-07-24T00:34:02.485Z,0.00
2018-07-24T00:35:02.491Z,0.00
2018-07-24T00:36:02.491Z,0.00
2018-07-24T00:37:02.489Z,0.00
2018-07-24T00:38:02.486Z,0.00
2018-07-24T00:39:02.492Z,0.00
2018-07-24T00:40:02.492Z,0.00
2018-07-24T00:41:02.493Z,0.00
2018-07-24T00:42:02.495Z,0.00
2018-07-24T00:43:02.489Z,0.00
2018-07-24T00:44:02.490Z,0.00
2018-07-24T00:45:02.519Z,0.00
2018-07-24T00:46:02.490Z,0.00
2018-07-24T00:47:02.495Z,0.00
2018-07-24T00:48:02.498Z,0.00
2018-07-24T00:49:02.495Z,0.00
2018-07-24T00:50:02.495Z,0.00
2018-07-24T00:51:02.491Z,0.00
2018-07-24T00:52:02.491Z,0.00
2018-07-24T00:53:02.496Z,0.00
2018-07-24T00:54:02.535Z,0.00
2018-07-24T00:55:02.492Z,0.00
2018-07-24T00:56:02.493Z,0.00
2018-07-24T00:57:02.494Z,0.00
2018-07-24T00:58:02.493Z,0.00
2018-07-24T00:59:02.501Z,0.00
2018-07-24T01:00:02.499Z,0.00
2018-07-24T01:01:02.494Z,0.00
2018-07-24T01:02:02.493Z,0.00
2018-07-24T01:03:02.499Z,0.00
2018-07-24T01:04:02.498Z,0.00
2018-07-24T01:05:02.501Z,0.00
2018-07-24T01:06:02.500Z,0.00
2018-07-24T01:07:02.496Z,0.00
2018-07-24T01:08:02.497Z,0.00
2018-07-24T01:09:02.501Z,0.00
2018-07-24T01:10:02.502Z,0.00
2018-07-24T01:11:02.498Z,0.00
2018-07-24T01:12:02.497Z,0.00
2018-07-24T01:13:02.500Z,0.00
2018-07-24T01:14:02.498Z,0.00
2018-07-24T01:15:02.502Z,0.00
2018-07-24T01:16:02.508Z,0.00
2018-07-24T01:17:02.502Z,0.00
2018-07-24T01:18:02.502Z,0.00
2018-07-24T01:19:02.497Z,0.00
2018-07-24T01:20:02.498Z,0.00
2018-07-24T01:21:02.501Z,0.00
2018-07-24T01:22:02.498Z,0.00
2018-07-24T01:23:02.504Z,0.00
2018-07-24T01:24:02.504Z,0.00
2018-07-24T01:25:02.503Z,0.00
2018-07-24T01:26:02.499Z,0.00
2018-07-24T01:27:02.503Z,0.00
2018-07-24T01:28:02.504Z,0.00
2018-07-24T01:29:02.504Z,0.00
2018-07-24T01:30:02.504Z,0.00
2018-07-24T01:31:02.499Z,0.00
2018-07-24T01:32:02.500Z,0.00
2018-07-24T01:33:02.500Z,0.00
2018-07-24T01:34:02.501Z,0.00
2018-07-24T01:35:02.504Z,0.00
2018-07-24T01:36:02.505Z,0.00
2018-07-24T01:37:02.508Z,0.00
2018-07-24T01:38:02.505Z,0.00
2018-07-24T01:39:02.501Z,0.00
2018-07-24T01:40:02.502Z,0.00
2018-07-24T01:41:02.505Z,0.00
2018-07-24T01:42:02.503Z,0.00
2018-07-24T01:43:02.502Z,0.00
2018-07-24T01:44:02.502Z,0.00
2018-07-24T01:45:02.501Z,0.00
2018-07-24T01:46:02.499Z,0.00
2018-07-24T01:47:02.508Z,0.00
2018-07-24T01:48:02.503Z,0.00
2018-07-24T01:49:02.504Z,0.00
2018-07-24T01:50:02.505Z,0.00
2018-07-24T01:51:02.499Z,0.00
2018-07-24T01:52:02.499Z,0.00
2018-07-24T01:53:02.499Z,0.00
2018-07-24T01:54:02.502Z,0.00
2018-07-24T01:55:02.504Z,0.00
2018-07-24T01:56:02.503Z,0.00
2018-07-24T01:57:02.499Z,0.00
2018-07-24T01:58:02.498Z,0.00
2018-07-24T01:59:02.504Z,0.00
2018-07-24T02:00:02.505Z,0.00
2018-07-24T02:01:02.505Z,0.00
2018-07-24T02:02:02.504Z,0.00
2018-07-24T02:03:02.498Z,0.00
2018-07-24T02:04:02.499Z,0.00
2018-07-24T02:05:02.498Z,0.00
2018-07-24T02:06:02.497Z,0.00
2018-07-24T02:07:02.503Z,0.00
2018-07-24T02:08:02.503Z,0.00
2018-07-24T02:09:02.503Z,0.00
2018-07-24T02:10:02.501Z,0.00
2018-07-24T02:11:02.497Z,0.00
2018-07-24T02:12:02.497Z,0.00
2018-07-24T02:13:02.513Z,0.00
2018-07-24T02:14:02.500Z,0.00
2018-07-24T02:15:02.496Z,0.00
2018-07-24T02:16:02.496Z,0.00
2018-07-24T02:17:02.496Z,0.00
2018-07-24T02:18:02.496Z,0.00
2018-07-24T02:19:02.500Z,0.00
2018-07-24T02:20:02.501Z,0.00
2018-07-24T02:21:02.501Z,0.00
2018-07-24T02:22:02.500Z,0.00
2018-07-24T02:23:02.494Z,0.00
2018-07-24T02:24:02.496Z,0.00
2018-07-24T02:25:02.494Z,0.00
2018-07-24T02:26:02.494Z,0.00
2018-07-24T02:27:02.499Z,0.00
2018-07-24T02:28:02.497Z,0.00
2018-07-24T02:29:02.494Z,0.00
2018-07-24T02:30:02.494Z,0.00
2018-07-24T02:31:02.497Z,0.00
2018-07-24T02:32:02.496Z,0.00
2018-07-24T02:33:02.496Z,0.00
2018-07-24T02:34:02.496Z,0.00
2018-07-24T02:35:02.491Z,0.00
2018-07-24T02:36:02.492Z,0.00
2018-07-24T02:37:02.491Z,0.00
2018-07-24T02:38:02.490Z,0.00
2018-07-24T02:39:02.493Z,0.00
2018-07-24T02:40:02.495Z,0.00
2018-07-24T02:41:02.494Z,0.00
2018-07-24T02:42:02.502Z,0.00
2018-07-24T02:43:02.490Z,0.00
2018-07-24T02:44:02.488Z,0.00
2018-07-24T02:45:02.493Z,0.00
2018-07-24T02:46:02.491Z,0.00
2018-07-24T02:47:02.487Z,0.00
2018-07-24T02:48:02.486Z,0.00
2018-07-24T02:49:02.488Z,0.00
2018-07-24T02:50:02.485Z,0.00
2018-07-24T02:51:02.499Z,0.00
2018-07-24T02:52:02.491Z,0.00
2018-07-24T02:53:02.489Z,0.00
2018-07-24T02:54:02.502Z,0.00
2018-07-24T02:55:02.483Z,0.00
2018-07-24T02:56:02.483Z,0.00
2018-07-24T02:57:02.483Z,0.00
2018-07-24T02:58:02.488Z,0.00
2018-07-24T02:59:02.486Z,0.00
2018-07-24T03:00:02.488Z,0.00
2018-07-24T03:01:02.481Z,0.00
2018-07-24T03:02:02.481Z,0.00
2018-07-24T03:03:02.486Z,0.00
2018-07-24T03:04:02.484Z,4.00
2018-07-24T03:05:02.485Z,4.00
2018-07-24T03:06:02.487Z,0.00
2018-07-24T03:07:02.478Z,0.00
2018-07-24T03:08:02.479Z,4.00
2018-07-24T03:09:02.478Z,4.00
2018-07-24T03:10:02.476Z,0.00
2018-07-24T03:11:02.483Z,4.00
2018-07-24T03:12:02.480Z,8.00
2018-07-24T03:13:02.480Z,4.00
2018-07-24T03:14:02.480Z,4.00
2018-07-24T03:15:02.477Z,8.00
2018-07-24T03:16:02.490Z,8.00
2018-07-24T03:17:02.481Z,8.00
2018-07-24T03:18:02.478Z,8.00
2018-07-24T03:19:02.476Z,12.00
2018-07-24T03:20:02.472Z,12.00
2018-07-24T03:21:02.472Z,16.00
2018-07-24T03:22:02.471Z,16.00
2018-07-24T03:23:02.474Z,20.00
2018-07-24T03:24:02.475Z,24.00
2018-07-24T03:25:02.474Z,24.00
2018-07-24T03:26:02.483Z,28.00
2018-07-24T03:27:02.470Z,32.00
2018-07-24T03:28:02.468Z,36.00
2018-07-24T03:29:02.468Z,40.00
2018-07-24T03:30:02.473Z,44.00
2018-07-24T03:31:02.472Z,48.00
2018-07-24T03:32:02.470Z,56.00
2018-07-24T03:33:02.467Z,64.00
2018-07-24T03:34:02.466Z,68.00
2018-07-24T03:35:02.469Z,76.00
2018-07-24T03:36:02.470Z,88.00
2018-07-24T03:37:02.468Z,92.00
2018-07-24T03:38:02.467Z,104.00
2018-07-24T03:39:02.462Z,116.00
2018-07-24T03:40:02.462Z,124.00
2018-07-24T03:41:02.462Z,136.00
2018-07-24T03:42:02.460Z,148.00
2018-07-24T03:43:02.467Z,160.00
2018-07-24T03:44:02.469Z,172.00
2018-07-24T03:45:02.512Z,184.00
2018-07-24T03:46:02.463Z,200.00
2018-07-24T03:47:02.458Z,216.00
2018-07-24T03:48:02.458Z,232.00
2018-07-24T03:49:02.463Z,248.00
2018-07-24T03:50:02.462Z,264.00
2018-07-24T03:51:02.456Z,288.00
2018-07-24T03:52:02.456Z,304.00
2018-07-24T03:53:02.459Z,328.00
2018-07-24T03:54:02.456Z,348.00
2018-07-24T03:55:02.467Z,372.00
2018-07-24T03:56:02.458Z,392.00
2018-07-24T03:57:02.459Z,420.00
2018-07-24T03:58:02.456Z,444.00
2018-07-24T03:59:02.474Z,472.00
2018-07-24T04:00:02.452Z,500.00
2018-07-24T04:01:02.452Z,524.00
2018-07-24T04:02:02.451Z,560.00
2018-07-24T04:03:02.456Z,588.00
2018-07-24T04:04:02.457Z,620.00
2018-07-24T04:05:02.453Z,652.00
2018-07-24T04:06:02.448Z,684.00
2018-07-24T04:07:02.457Z,716.00
2018-07-24T04:08:02.456Z,752.00
2018-07-24T04:09:02.452Z,788.00
2018-07-24T04:10:02.450Z,828.00
2018-07-24T04:11:02.446Z,868.00
2018-07-24T04:12:02.445Z,912.00
2018-07-24T04:13:02.445Z,948.00
2018-07-24T04:14:02.444Z,996.00
2018-07-24T04:15:02.449Z,1036.00
2018-07-24T04:16:02.448Z,1080.00
2018-07-24T04:17:02.447Z,1128.00
2018-07-24T04:18:02.445Z,1172.00
2018-07-24T04:19:02.442Z,1220.00
2018-07-24T04:20:02.441Z,1272.00
2018-07-24T04:21:02.448Z,1316.00
2018-07-24T04:22:02.444Z,1372.00
2018-07-24T04:23:02.440Z,1420.00
2018-07-24T04:24:02.441Z,1476.00
2018-07-24T04:25:02.439Z,1528.00
2018-07-24T04:26:02.438Z,1580.00
2018-07-24T04:27:02.443Z,1636.00
2018-07-24T04:28:02.443Z,1688.00
2018-07-24T04:29:02.440Z,1740.00
2018-07-24T04:30:02.441Z,1792.00
2018-07-24T04:31:02.497Z,1844.00
2018-07-24T04:32:02.436Z,1896.00
2018-07-24T04:33:02.435Z,1948.00
2018-07-24T04:34:02.437Z,2004.00
2018-07-24T04:35:02.439Z,2060.00
2018-07-24T04:36:02.437Z,2120.00
2018-07-24T04:37:02.433Z,2184.00
2018-07-24T04:38:02.435Z,2252.00
2018-07-24T04:39:02.436Z,2312.00
2018-07-24T04:40:02.452Z,2376.00
2018-07-24T04:41:02.439Z,2436.00
2018-07-24T04:42:02.436Z,2496.00
2018-07-24T04:43:02.432Z,2576.00
2018-07-24T04:44:02.430Z,2692.00
2018-07-24T04:45:02.434Z,2764.00
2018-07-24T04:46:02.429Z,2764.00
2018-07-24T04:47:02.434Z,2812.00
2018-07-24T04:48:02.435Z,2884.00
2018-07-24T04:49:02.434Z,2988.00
2018-07-24T04:50:02.433Z,3128.00
2018-07-24T04:51:02.431Z,3708.00
2018-07-24T04:52:02.433Z,4944.00
2018-07-24T04:53:02.432Z,5936.00
2018-07-24T04:54:02.432Z,6200.00
2018-07-24T04:55:02.429Z,6436.00
2018-07-24T04:56:02.428Z,6684.00
2018-07-24T04:57:02.429Z,6960.00
2018-07-24T04:58:02.428Z,7196.00
2018-07-24T04:59:02.434Z,7480.00
2018-07-24T05:00:02.435Z,7724.00
2018-07-24T05:01:02.440Z,7992.00
2018-07-24T05:02:02.434Z,8256.00
2018-07-24T05:03:02.432Z,8552.00
2018-07-24T05:04:02.433Z,8804.00
2018-07-24T05:05:02.438Z,9048.00
2018-07-24T05:06:02.436Z,9308.00
2018-07-24T05:07:02.440Z,9560.00
2018-07-24T05:08:02.443Z,9832.00
2018-07-24T05:09:02.440Z,10156.00
2018-07-24T05:10:02.442Z,10456.00
2018-07-24T05:11:02.451Z,10728.00
2018-07-24T05:12:02.451Z,10936.00
2018-07-24T05:13:02.454Z,11108.00
2018-07-24T05:14:02.455Z,11320.00
2018-07-24T05:15:02.455Z,11528.00
2018-07-24T05:16:02.457Z,11804.00
2018-07-24T05:17:02.464Z,12120.00
2018-07-24T05:18:02.462Z,12420.00
2018-07-24T05:19:02.500Z,12664.00
2018-07-24T05:20:02.476Z,12864.00
2018-07-24T05:21:02.478Z,13152.00
2018-07-24T05:22:02.480Z,13344.00
2018-07-24T05:23:02.479Z,13568.00
2018-07-24T05:24:02.484Z,13760.00
2018-07-24T05:25:02.492Z,14016.00
2018-07-24T05:26:02.496Z,14304.00
2018-07-24T05:27:02.496Z,14464.00
2018-07-24T05:28:02.504Z,14656.00
2018-07-24T05:29:02.506Z,14848.00
2018-07-24T05:30:02.511Z,15168.00
2018-07-24T05:31:02.519Z,15360.00
2018-07-24T05:32:02.526Z,15488.00
2018-07-24T05:33:02.570Z,15744.00
2018-07-24T05:34:02.535Z,15840.00
2018-07-24T05:35:02.536Z,15936.00
2018-07-24T05:36:02.542Z,16128.00
2018-07-24T05:37:02.547Z,16352.00
2018-07-24T05:38:02.556Z,16640.00
2018-07-24T05:39:02.562Z,16992.00
2018-07-24T05:40:02.567Z,17216.00
2018-07-24T05:41:02.569Z,17440.00
2018-07-24T05:42:02.574Z,17632.00
2018-07-24T05:43:02.585Z,17888.00
2018-07-24T05:44:02.591Z,18144.00
2018-07-24T05:45:02.601Z,18336.00
2018-07-24T05:46:02.605Z,18624.00
2018-07-24T05:47:02.606Z,18816.00
2018-07-24T05:48:02.613Z,19072.00
2018-07-24T05:49:02.726Z,19328.00
2018-07-24T05:50:02.628Z,19584.00
2018-07-24T05:51:02.639Z,19872.00
2018-07-24T05:52:02.648Z,20128.00
2018-07-24T05:53:02.653Z,20384.00
2018-07-24T05:54:02.661Z,20704.00
2018-07-24T05:55:02.702Z,20864.00
2018-07-24T05:56:02.670Z,21024.00
2018-07-24T05:57:02.682Z,21152.00
2018-07-24T05:58:02.689Z,21408.00
2018-07-24T05:59:02.693Z,21696.00
2018-07-24T06:00:02.702Z,21952.00
2018-07-24T06:01:02.709Z,22048.00
2018-07-24T06:02:02.773Z,22240.00
2018-07-24T06:03:02.731Z,22432.00
2018-07-24T06:04:02.740Z,22624.00
2018-07-24T06:05:02.749Z,22784.00
2018-07-24T06:06:02.757Z,22912.00
2018-07-24T06:07:02.760Z,23104.00
2018-07-24T06:08:02.770Z,23296.00
2018-07-24T06:09:02.778Z,23424.00
2018-07-24T06:10:02.786Z,23584.00
2018-07-24T06:11:02.803Z,23744.00
2018-07-24T06:12:02.809Z,23904.00
2018-07-24T06:13:02.850Z,24160.00
2018-07-24T06:14:02.823Z,24288.00
2018-07-24T06:15:02.838Z,24448.00
2018-07-24T06:16:02.846Z,24640.00
2018-07-24T06:17:02.913Z,24736.00
2018-07-24T06:18:02.868Z,24960.00
2018-07-24T06:19:02.873Z,24992.00
2018-07-24T06:20:02.882Z,25152.00
2018-07-24T06:21:02.893Z,25344.00
2018-07-24T06:22:02.901Z,25472.00
2018-07-24T06:23:02.915Z,25568.00
2018-07-24T06:24:02.927Z,25760.00
2018-07-24T06:25:02.937Z,25984.00
2018-07-24T06:26:02.950Z,26176.00
2018-07-24T06:27:02.952Z,26432.00
2018-07-24T06:28:02.962Z,26560.00
2018-07-24T06:29:02.977Z,26784.00
2018-07-24T06:30:02.993Z,26912.00
2018-07-24T06:31:02.993Z,27008.00
2018-07-24T06:32:03.003Z,27232.00
2018-07-24T06:33:03.015Z,27328.00
2018-07-24T06:34:03.024Z,27552.00
2018-07-24T06:35:03.086Z,27712.00
2018-07-24T06:36:03.052Z,27936.00
2018-07-24T06:37:03.063Z,28192.00
2018-07-24T06:38:03.072Z,28448.00
2018-07-24T06:39:03.079Z,28544.00
2018-07-24T06:40:03.091Z,28608.00
2018-07-24T06:41:03.103Z,28704.00
2018-07-24T06:42:03.114Z,28928.00
2018-07-24T06:43:03.131Z,29184.00
2018-07-24T06:44:03.142Z,29312.00
2018-07-24T06:45:03.154Z,29440.00
2018-07-24T06:46:03.159Z,29664.00
2018-07-24T06:47:03.176Z,29888.00
2018-07-24T06:48:03.191Z,30016.00
2018-07-24T06:49:03.199Z,30112.00
2018-07-24T06:50:03.212Z,30304.00
2018-07-24T06:51:03.273Z,30464.00
2018-07-24T06:52:03.253Z,30688.00
2018-07-24T06:53:03.244Z,30944.00
2018-07-24T06:54:03.254Z,31072.00
2018-07-24T06:55:03.271Z,31328.00
2018-07-24T06:56:03.285Z,31552.00
2018-07-24T06:57:03.321Z,31744.00
2018-07-24T06:58:03.309Z,31808.00
2018-07-24T06:59:03.316Z,31968.00
2018-07-24T07:00:03.332Z,32192.00
2018-07-24T07:01:03.347Z,32320.00
2018-07-24T07:02:03.417Z,32608.00
2018-07-24T07:03:03.367Z,32832.00
2018-07-24T07:04:03.381Z,32992.00
2018-07-24T07:05:03.432Z,33088.00
2018-07-24T07:06:03.406Z,33120.00
2018-07-24T07:07:03.424Z,33344.00
2018-07-24T07:08:03.438Z,33504.00
2018-07-24T07:09:03.451Z,33792.00
2018-07-24T07:10:03.465Z,34016.00
2018-07-24T07:11:03.473Z,34432.00
2018-07-24T07:12:03.486Z,34752.00
2018-07-24T07:13:03.609Z,35040.00
2018-07-24T07:14:03.515Z,35360.00
2018-07-24T07:15:03.533Z,35808.00
2018-07-24T07:16:03.547Z,36288.00
2018-07-24T07:17:03.555Z,36960.00
2018-07-24T07:18:03.569Z,38176.00
2018-07-24T07:19:03.589Z,39552.00
2018-07-24T07:20:03.603Z,42048.00
2018-07-24T07:21:03.617Z,45888.00
2018-07-24T07:22:03.633Z,51104.00
2018-07-24T07:23:03.640Z,57728.00
2018-07-24T07:24:03.655Z,64192.00
2018-07-24T07:25:03.670Z,66496.00
2018-07-24T07:26:03.711Z,63552.00
2018-07-24T07:27:03.704Z,58880.00
2018-07-24T07:28:03.719Z,57600.00
2018-07-24T07:29:03.737Z,58656.00
2018-07-24T07:30:03.746Z,58848.00
2018-07-24T07:31:03.759Z,60992.00
2018-07-24T07:32:03.774Z,63584.00
2018-07-24T07:33:03.792Z,65440.00
2018-07-24T07:34:03.807Z,67840.00
2018-07-24T07:35:03.817Z,71808.00
2018-07-24T07:36:03.833Z,75520.00
2018-07-24T07:37:03.850Z,75008.00
2018-07-24T07:38:03.863Z,75744.00
2018-07-24T07:39:03.885Z,79840.00
2018-07-24T07:40:03.900Z,85312.00
2018-07-24T07:41:03.916Z,89152.00
2018-07-24T07:42:03.930Z,89216.00
2018-07-24T07:43:03.942Z,89312.00
2018-07-24T07:44:03.989Z,86336.00
2018-07-24T07:45:03.974Z,83808.00
2018-07-24T07:46:03.989Z,88768.00
2018-07-24T07:47:04.011Z,94208.00
2018-07-24T07:48:04.031Z,99328.00
2018-07-24T07:49:04.038Z,98208.00
2018-07-24T07:50:04.056Z,90592.00
2018-07-24T07:51:04.077Z,85632.00
2018-07-24T07:52:04.093Z,87616.00
2018-07-24T07:53:04.111Z,90656.00
2018-07-24T07:54:04.127Z,86208.00
2018-07-24T07:55:04.139Z,80960.00
2018-07-24T07:56:04.155Z,63232.00
2018-07-24T07:57:04.173Z,62208.00
2018-07-24T07:58:04.191Z,62976.00
2018-07-24T07:59:04.213Z,65280.00
2018-07-24T08:00:04.230Z,63680.00
2018-07-24T08:01:04.247Z,58752.00
2018-07-24T08:02:04.264Z,58752.00
2018-07-24T08:03:04.276Z,60064.00
2018-07-24T08:04:04.295Z,62400.00
2018-07-24T08:05:04.317Z,58880.00
2018-07-24T08:06:04.333Z,50656.00
2018-07-24T08:07:04.348Z,52544.00
2018-07-24T08:08:04.365Z,55232.00
2018-07-24T08:09:04.386Z,53376.00
2018-07-24T08:10:04.402Z,50592.00
2018-07-24T08:11:04.423Z,50336.00
2018-07-24T08:12:04.439Z,52096.00
2018-07-24T08:13:04.458Z,52160.00
2018-07-24T08:14:04.476Z,52800.00
2018-07-24T08:15:04.488Z,52800.00
2018-07-24T08:16:04.505Z,51104.00
2018-07-24T08:17:04.527Z,48928.00
2018-07-24T08:18:04.540Z,47936.00
2018-07-24T08:19:04.563Z,47104.00
2018-07-24T08:20:04.582Z,47872.00
2018-07-24T08:21:04.597Z,48832.00
2018-07-24T08:22:04.614Z,48096.00
2018-07-24T08:23:04.637Z,45984.00
2018-07-24T08:24:04.655Z,45280.00
2018-07-24T08:25:04.675Z,43264.00
2018-07-24T08:26:04.693Z,43776.00
2018-07-24T08:27:04.705Z,44704.00
2018-07-24T08:28:04.735Z,44448.00
2018-07-24T08:29:04.745Z,44800.00
2018-07-24T08:30:04.763Z,46432.00
2018-07-24T08:31:04.790Z,45760.00
2018-07-24T08:32:04.806Z,45120.00
2018-07-24T08:33:04.830Z,44832.00
2018-07-24T08:34:04.845Z,44384.00
2018-07-24T08:35:04.860Z,45920.00
2018-07-24T08:36:04.879Z,46528.00
2018-07-24T08:37:04.903Z,46176.00
2018-07-24T08:38:04.923Z,46880.00
2018-07-24T08:39:04.938Z,46944.00
2018-07-24T08:40:04.958Z,45824.00
2018-07-24T08:41:04.978Z,45888.00
2018-07-24T08:42:04.997Z,49536.00
2018-07-24T08:43:05.021Z,51200.00
2018-07-24T08:44:05.041Z,49088.00
2018-07-24T08:45:05.063Z,45984.00
2018-07-24T08:46:05.081Z,43680.00
2018-07-24T08:47:05.102Z,45824.00
2018-07-24T08:48:05.120Z,49152.00
2018-07-24T08:49:05.170Z,50560.00
2018-07-24T08:50:05.159Z,48000.00
2018-07-24T08:51:05.186Z,49440.00
2018-07-24T08:52:05.205Z,53664.00
2018-07-24T08:53:05.386Z,53280.00
2018-07-24T08:54:05.432Z,51104.00
2018-07-24T08:55:05.486Z,48352.00
2018-07-24T08:56:05.291Z,50464.00
2018-07-24T08:57:05.311Z,52864.00
2018-07-24T08:58:05.331Z,53632.00
2018-07-24T08:59:05.348Z,57376.00
2018-07-24T09:00:05.370Z,63392.00
2018-07-24T09:01:05.391Z,62976.00
2018-07-24T09:02:05.411Z,58432.00
2018-07-24T09:03:05.444Z,53824.00
2018-07-24T09:04:05.518Z,51296.00
2018-07-24T09:05:05.482Z,49824.00
2018-07-24T09:06:05.503Z,48256.00
2018-07-24T09:07:05.523Z,48000.00
2018-07-24T09:08:05.542Z,47360.00
2018-07-24T09:09:05.568Z,46560.00
2018-07-24T09:10:05.625Z,46464.00
2018-07-24T09:11:05.605Z,46432.00
2018-07-24T09:12:05.627Z,46176.00
2018-07-24T09:13:05.648Z,46016.00
2018-07-24T09:14:05.671Z,45984.00
2018-07-24T09:15:05.696Z,46656.00
2018-07-24T09:16:05.718Z,46880.00
2018-07-24T09:17:05.740Z,46880.00
2018-07-24T09:18:05.764Z,47008.00
2018-07-24T09:19:05.780Z,46976.00
2018-07-24T09:20:05.802Z,46912.00
2018-07-24T09:21:05.826Z,47264.00
2018-07-24T09:22:05.846Z,47456.00
2018-07-24T09:23:05.879Z,47712.00
2018-07-24T09:24:05.896Z,47840.00
2018-07-24T09:25:05.913Z,47968.00
2018-07-24T09:26:05.935Z,47904.00
2018-07-24T09:27:05.976Z,47712.00
2018-07-24T09:28:05.985Z,47392.00
2018-07-24T09:29:06.007Z,47616.00
2018-07-24T09:30:06.029Z,47872.00
2018-07-24T09:31:06.047Z,46976.00
2018-07-24T09:32:06.134Z,47104.00
2018-07-24T09:33:06.094Z,46912.00
2018-07-24T09:34:06.114Z,46656.00
2018-07-24T09:35:06.142Z,46240.00
2018-07-24T09:36:06.167Z,46400.00
2018-07-24T09:37:06.189Z,46016.00
2018-07-24T09:38:06.210Z,45952.00
2018-07-24T09:39:06.230Z,45600.00
2018-07-24T09:40:06.253Z,45408.00
2018-07-24T09:41:06.279Z,45152.00
2018-07-24T09:42:06.302Z,44960.00
2018-07-24T09:43:06.320Z,44352.00
2018-07-24T09:44:06.343Z,43392.00
2018-07-24T09:45:06.366Z,43136.00
2018-07-24T09:46:06.388Z,43168.00
2018-07-24T09:47:06.417Z,43264.00
2018-07-24T09:48:06.438Z,43136.00
2018-07-24T09:49:06.466Z,43008.00
2018-07-24T09:50:06.487Z,43104.00
2018-07-24T09:51:06.500Z,43040.00
2018-07-24T09:52:06.522Z,43136.00
2018-07-24T09:53:06.547Z,43328.00
2018-07-24T09:54:06.566Z,47648.00
2018-07-24T09:55:06.594Z,61888.00
2018-07-24T09:56:06.615Z,83712.00
2018-07-24T09:57:06.633Z,97216.00
2018-07-24T09:58:06.659Z,97280.00
2018-07-24T09:59:06.681Z,91776.00
2018-07-24T10:00:06.705Z,84352.00
2018-07-24T10:01:06.727Z,81088.00
2018-07-24T10:02:06.750Z,85152.00
2018-07-24T10:03:06.766Z,84640.00
2018-07-24T10:04:06.790Z,83616.00
2018-07-24T10:05:06.847Z,84992.00
2018-07-24T10:06:06.834Z,85696.00
2018-07-24T10:07:06.862Z,83424.00
2018-07-24T10:08:06.884Z,81440.00
2018-07-24T10:09:06.906Z,80224.00
2018-07-24T10:10:06.928Z,80064.00
2018-07-24T10:11:07.043Z,83520.00
2018-07-24T10:12:06.992Z,82560.00
2018-07-24T10:13:07.108Z,83072.00
2018-07-24T10:14:07.017Z,81696.00
2018-07-24T10:15:07.037Z,78944.00
2018-07-24T10:16:07.059Z,80960.00
2018-07-24T10:17:07.085Z,81408.00
2018-07-24T10:18:07.107Z,79072.00
2018-07-24T10:19:07.135Z,75872.00
2018-07-24T10:20:07.156Z,74976.00
2018-07-24T10:21:07.179Z,74880.00
2018-07-24T10:22:07.203Z,74560.00
2018-07-24T10:23:07.220Z,73792.00
2018-07-24T10:24:07.245Z,72544.00
2018-07-24T10:25:07.273Z,72768.00
2018-07-24T10:26:07.290Z,68736.00
2018-07-24T10:27:07.320Z,67488.00
2018-07-24T10:28:07.342Z,67904.00
2018-07-24T10:29:07.361Z,66752.00
2018-07-24T10:30:07.384Z,66144.00
2018-07-24T10:31:07.414Z,63648.00
2018-07-24T10:32:07.436Z,62976.00
2018-07-24T10:33:07.460Z,61024.00
2018-07-24T10:34:07.486Z,63936.00
2018-07-24T10:35:07.500Z,61504.00
2018-07-24T10:36:07.524Z,59712.00
2018-07-24T10:37:07.547Z,61152.00
2018-07-24T10:38:07.570Z,61984.00
2018-07-24T10:39:07.597Z,60192.00
2018-07-24T10:40:07.620Z,60480.00
2018-07-24T10:41:07.645Z,61952.00
2018-07-24T10:42:07.664Z,62176.00
2018-07-24T10:43:07.749Z,61728.00
2018-07-24T10:44:07.705Z,60064.00
2018-07-24T10:45:07.733Z,58592.00
2018-07-24T10:46:07.752Z,58528.00
2018-07-24T10:47:07.769Z,60160.00
2018-07-24T10:48:07.791Z,58048.00
2018-07-24T10:49:07.850Z,57472.00
2018-07-24T10:50:07.834Z,58976.00
2018-07-24T10:51:07.857Z,59648.00
2018-07-24T10:52:07.905Z,59264.00
2018-07-24T10:53:07.900Z,62816.00
2018-07-24T10:54:07.918Z,62432.00
2018-07-24T10:55:07.934Z,62784.00
2018-07-24T10:56:07.954Z,63808.00
2018-07-24T10:57:07.974Z,62400.00
2018-07-24T10:58:07.995Z,62656.00
2018-07-24T10:59:08.017Z,64672.00
2018-07-24T11:00:08.037Z,65856.00
2018-07-24T11:01:08.051Z,66624.00
2018-07-24T11:02:08.069Z,66304.00
2018-07-24T11:03:08.094Z,68064.00
2018-07-24T11:04:08.113Z,69056.00
2018-07-24T11:05:08.169Z,70176.00
2018-07-24T11:06:08.152Z,69312.00
2018-07-24T11:07:08.164Z,70240.00
2018-07-24T11:08:08.184Z,72608.00
2018-07-24T11:09:08.203Z,73632.00
2018-07-24T11:10:08.221Z,70784.00
2018-07-24T11:11:08.247Z,69408.00
2018-07-24T11:12:08.265Z,71168.00
2018-07-24T11:13:08.285Z,75200.00
2018-07-24T11:14:08.304Z,77184.00
2018-07-24T11:15:08.319Z,80640.00
2018-07-24T11:16:08.337Z,84128.00
2018-07-24T11:17:08.363Z,85888.00
2018-07-24T11:18:08.384Z,84352.00
2018-07-24T11:19:08.395Z,80480.00
2018-07-24T11:20:08.419Z,81888.00
2018-07-24T11:21:08.434Z,81952.00
2018-07-24T11:22:08.571Z,84000.00
2018-07-24T11:23:08.578Z,84672.00
2018-07-24T11:24:08.515Z,83456.00
2018-07-24T11:25:08.518Z,81088.00
2018-07-24T11:26:08.536Z,87520.00
2018-07-24T11:27:08.551Z,81568.00
2018-07-24T11:28:08.573Z,37888.00
2018-07-24T11:29:08.590Z,11324.00
2018-07-24T11:30:08.608Z,9180.00
2018-07-24T11:31:08.633Z,8776.00
2018-07-24T11:32:08.651Z,8712.00
2018-07-24T11:33:08.853Z,8584.00
2018-07-24T11:34:08.680Z,8592.00
2018-07-24T11:35:08.703Z,9128.00
2018-07-24T11:36:08.881Z,9492.00
2018-07-24T11:37:08.737Z,9140.00
2018-07-24T11:38:08.763Z,8528.00
2018-07-24T11:39:08.765Z,8220.00
2018-07-24T11:40:08.780Z,8096.00
2018-07-24T11:41:08.822Z,7844.00
2018-07-24T11:42:08.811Z,7664.00
2018-07-24T11:43:08.831Z,7700.00
2018-07-24T11:44:08.879Z,7800.00
2018-07-24T11:45:08.859Z,7912.00
2018-07-24T11:46:08.873Z,8096.00
2018-07-24T11:47:08.883Z,8316.00
2018-07-24T11:48:08.915Z,9020.00
2018-07-24T11:49:08.916Z,9180.00
2018-07-24T11:50:08.928Z,9164.00
2018-07-24T11:51:08.937Z,8912.00
2018-07-24T11:52:08.952Z,8540.00
2018-07-24T11:53:08.968Z,8320.00
2018-07-24T11:54:08.976Z,6812.00
2018-07-24T11:55:08.992Z,8228.00
2018-07-24T11:56:09.007Z,6912.00
2018-07-24T11:57:09.018Z,8148.00
2018-07-24T11:58:09.032Z,7044.00
2018-07-24T11:59:09.036Z,8348.00
2018-07-24T12:00:09.049Z,7932.00
2018-07-24T12:01:09.059Z,6648.00
2018-07-24T12:02:09.069Z,6484.00
2018-07-24T12:03:09.086Z,7560.00
2018-07-24T12:04:09.097Z,7900.00
2018-07-24T12:05:09.102Z,7860.00
2018-07-24T12:06:09.112Z,7736.00
2018-07-24T12:07:09.127Z,7412.00
2018-07-24T12:08:09.138Z,7228.00
2018-07-24T12:09:09.149Z,7192.00
2018-07-24T12:10:09.193Z,7160.00
2018-07-24T12:11:09.163Z,7044.00
2018-07-24T12:12:09.174Z,6936.00
2018-07-24T12:13:09.184Z,6804.00
2018-07-24T12:14:09.192Z,6692.00